createdAt,value
2018-08-24T00:01:03.738Z,1.33
2018-08-24T00:03:34.008Z,1.37
2018-08-24T00:06:04.038Z,2.03
2018-08-24T00:08:33.577Z,1.60
2018-08-24T00:11:03.400Z,1.33
2018-08-24T00:13:33.008Z,1.70
2018-08-24T00:16:02.546Z,1.70
2018-08-24T00:18:32.087Z,1.53
2018-08-24T00:21:01.633Z,1.40
2018-08-24T00:23:31.208Z,2.80
2018-08-24T00:26:00.792Z,2.10
2018-08-24T00:28:30.372Z,2.40
2018-08-24T00:30:59.924Z,3.03
2018-08-24T00:33:29.471Z,4.00
2018-08-24T00:35:59.185Z,4.47
2018-08-24T00:38:28.771Z,4.13
2018-08-24T00:40:58.630Z,4.80
2018-08-24T00:43:28.168Z,5.70
2018-08-24T00:45:57.700Z,6.07
2018-08-24T00:48:27.383Z,4.80
2018-08-24T00:50:56.859Z,6.10
2018-08-24T00:53:26.407Z,5.60
2018-08-24T00:55:55.957Z,5.50
2018-08-24T00:58:25.474Z,5.47
2018-08-24T01:01:00.185Z,6.10
2018-08-24T01:03:30.523Z,5.60
2018-08-24T01:06:00.432Z,4.73
2018-08-24T01:08:30.017Z,4.20
2018-08-24T01:10:59.640Z,4.47
2018-08-24T01:13:29.178Z,3.67
2018-08-24T01:16:01.241Z,3.83
2018-08-24T01:18:36.100Z,3.90
2018-08-24T01:21:05.980Z,3.70
2018-08-24T01:23:35.623Z,4.00
2018-08-24T01:26:06.692Z,3.33
2018-08-24T01:28:36.259Z,3.37
2018-08-24T01:31:07.807Z,3.67
2018-08-24T01:33:37.303Z,4.03
2018-08-24T01:36:06.841Z,3.90
2018-08-24T01:38:36.963Z,4.30
2018-08-24T01:41:06.558Z,4.60
2018-08-24T01:43:36.069Z,4.67
2018-08-24T01:46:09.720Z,4.80
2018-08-24T01:48:40.326Z,4.20
2018-08-24T01:51:10.205Z,5.20
2018-08-24T01:53:40.017Z,4.97
2018-08-24T01:56:09.721Z,4.47
2018-08-24T01:58:39.334Z,4.47
2018-08-24T02:01:08.889Z,3.80
2018-08-24T02:03:38.442Z,4.20
2018-08-24T02:06:08.911Z,4.00
2018-08-24T02:08:38.928Z,4.43
2018-08-24T02:11:13.809Z,4.17
2018-08-24T02:13:48.429Z,4.20
2018-08-24T02:16:18.084Z,5.10
2018-08-24T02:18:54.455Z,4.97
2018-08-24T02:21:29.439Z,4.80
2018-08-24T02:23:59.324Z,5.27
2018-08-24T02:26:28.945Z,4.57
2018-08-24T02:28:58.528Z,5.10
2018-08-24T02:31:32.434Z,4.53
2018-08-24T02:34:02.088Z,4.90
2018-08-24T02:36:31.803Z,5.63
2018-08-24T02:39:01.435Z,5.67
2018-08-24T02:41:31.103Z,4.77
2018-08-24T02:44:00.672Z,5.93
2018-08-24T02:46:30.225Z,5.50
2018-08-24T02:48:59.746Z,5.97
2018-08-24T02:51:29.353Z,6.33
2018-08-24T02:53:59.281Z,5.60
2018-08-24T02:56:28.889Z,5.70
2018-08-24T02:58:58.483Z,6.30
2018-08-24T03:01:27.984Z,5.93
2018-08-24T03:03:57.523Z,6.60
2018-08-24T03:06:28.072Z,7.27
2018-08-24T03:08:57.636Z,8.77
2018-08-24T03:11:27.209Z,8.03
2018-08-24T03:13:57.026Z,7.37
2018-08-24T03:16:26.675Z,7.67
2018-08-24T03:18:56.303Z,8.70
2018-08-24T03:21:25.866Z,8.17
2018-08-24T03:23:55.483Z,7.47
2018-08-24T03:26:25.064Z,7.83
2018-08-24T03:28:54.622Z,8.17
2018-08-24T03:31:24.139Z,9.00
2018-08-24T03:33:53.719Z,9.67
2018-08-24T03:36:23.269Z,9.67
2018-08-24T03:38:53.145Z,9.80
2018-08-24T03:41:22.705Z,10.27
2018-08-24T03:43:52.644Z,10.27
2018-08-24T03:46:22.330Z,10.80
2018-08-24T03:48:51.975Z,9.23
2018-08-24T03:51:21.730Z,9.47
2018-08-24T03:53:51.246Z,8.83
2018-08-24T03:56:20.912Z,9.13
2018-08-24T03:58:50.423Z,9.30
2018-08-24T04:01:20.007Z,8.33
2018-08-24T04:03:49.556Z,9.80
2018-08-24T04:06:19.380Z,10.03
2018-08-24T04:08:48.997Z,9.70
2018-08-24T04:11:18.605Z,9.73
2018-08-24T04:13:48.248Z,10.23
2018-08-24T04:16:17.796Z,9.43
2018-08-24T04:18:47.422Z,11.40
2018-08-24T04:21:17.076Z,11.17
2018-08-24T04:23:46.585Z,10.57
2018-08-24T04:26:16.101Z,11.33
2018-08-24T04:28:45.630Z,10.40
2018-08-24T04:31:15.300Z,10.17
2018-08-24T04:33:44.845Z,11.17
2018-08-24T04:36:14.394Z,10.87
2018-08-24T04:38:43.987Z,12.00
2018-08-24T04:41:13.789Z,12.07
2018-08-24T04:43:43.344Z,12.97
2018-08-24T04:46:12.917Z,13.27
2018-08-24T04:48:42.547Z,13.63
2018-08-24T04:51:12.298Z,13.40
2018-08-24T04:53:42.009Z,14.70
2018-08-24T04:56:11.711Z,13.60
2018-08-24T04:58:41.392Z,13.77
2018-08-24T05:01:10.918Z,13.10
2018-08-24T05:03:40.537Z,14.10
2018-08-24T05:06:10.249Z,12.97
2018-08-24T05:08:39.775Z,13.00
2018-08-24T05:11:09.544Z,12.33
2018-08-24T05:13:39.130Z,12.67
2018-08-24T05:16:08.728Z,13.90
2018-08-24T05:18:38.249Z,13.27
2018-08-24T05:21:07.913Z,12.20
2018-08-24T05:23:37.778Z,12.57
2018-08-24T05:26:07.322Z,12.00
2018-08-24T05:28:36.856Z,11.93
2018-08-24T05:31:07.124Z,12.07
2018-08-24T05:33:36.743Z,11.83
2018-08-24T05:36:06.628Z,10.80
2018-08-24T05:38:36.238Z,12.50
2018-08-24T05:41:05.782Z,11.27
2018-08-24T05:43:35.390Z,12.30
2018-08-24T05:46:05.006Z,11.37
2018-08-24T05:48:34.540Z,11.60
2018-08-24T05:51:04.166Z,12.67
2018-08-24T05:53:33.731Z,11.47
2018-08-24T05:56:03.296Z,14.10
2018-08-24T05:58:32.889Z,13.50
2018-08-24T06:01:02.570Z,13.77
2018-08-24T06:03:32.138Z,13.03
2018-08-24T06:06:02.673Z,12.47
2018-08-24T06:08:32.944Z,11.67
2018-08-24T06:11:03.129Z,11.10
2018-08-24T06:13:33.040Z,10.43
2018-08-24T06:16:02.619Z,11.00
2018-08-24T06:18:32.326Z,10.93
2018-08-24T06:21:01.860Z,10.90
2018-08-24T06:23:31.434Z,9.77
2018-08-24T06:26:01.057Z,11.13
2018-08-24T06:28:30.742Z,10.00
2018-08-24T06:31:00.308Z,11.07
2018-08-24T06:33:30.102Z,11.67
2018-08-24T06:35:59.690Z,11.80
2018-08-24T06:38:29.357Z,10.93
2018-08-24T06:43:55.902Z,12.40
2018-08-24T06:46:25.603Z,12.93
2018-08-24T06:48:55.164Z,12.90
2018-08-24T06:51:24.730Z,14.47
2018-08-24T06:53:58.245Z,13.73
2018-08-24T06:56:27.847Z,12.67
2018-08-24T06:58:58.848Z,14.20
2018-08-24T07:01:28.716Z,13.37
2018-08-24T07:03:58.439Z,14.70
2018-08-24T07:06:28.020Z,13.53
2018-08-24T07:08:57.641Z,13.80
2018-08-24T07:11:27.215Z,13.27
2018-08-24T07:13:57.050Z,13.27
2018-08-24T07:16:26.902Z,12.90
2018-08-24T07:18:56.469Z,13.37
2018-08-24T07:21:26.069Z,12.40
2018-08-24T07:23:55.714Z,11.47
2018-08-24T07:26:25.339Z,12.37
2018-08-24T07:28:54.881Z,13.30
2018-08-24T07:31:24.614Z,13.20
2018-08-24T07:33:54.183Z,12.60
2018-08-24T07:36:23.813Z,13.00
2018-08-24T07:38:53.779Z,13.80
2018-08-24T07:41:23.811Z,13.07
2018-08-24T07:43:53.527Z,13.70
2018-08-24T07:46:23.182Z,13.43
2018-08-24T07:48:52.803Z,14.10
2018-08-24T07:51:22.509Z,13.30
2018-08-24T07:53:52.165Z,13.47
2018-08-24T07:56:21.874Z,13.77
2018-08-24T07:58:54.171Z,13.27
2018-08-24T08:01:23.796Z,13.67
2018-08-24T08:03:53.507Z,13.00
2018-08-24T08:06:23.089Z,13.13
2018-08-24T08:08:53.954Z,13.37
2018-08-24T08:11:23.765Z,14.17
2018-08-24T08:13:53.658Z,13.03
2018-08-24T08:16:23.285Z,13.63
2018-08-24T08:18:52.866Z,15.77
2018-08-24T08:21:22.450Z,16.03
2018-08-24T08:23:52.128Z,13.70
2018-08-24T08:26:21.766Z,12.77
2018-08-24T08:28:51.660Z,12.90
2018-08-24T08:31:21.254Z,13.40
2018-08-24T08:33:50.888Z,13.27
2018-08-24T08:36:20.429Z,12.03
2018-08-24T08:38:50.108Z,13.50
2018-08-24T08:41:19.997Z,12.93
2018-08-24T08:43:49.654Z,10.30
2018-08-24T08:46:19.206Z,9.50
2018-08-24T08:48:52.085Z,9.23
2018-08-24T08:51:21.900Z,8.27
2018-08-24T08:53:54.766Z,8.77
2018-08-24T08:56:24.569Z,8.13
2018-08-24T08:59:02.279Z,8.97
2018-08-24T09:01:35.090Z,8.20
2018-08-24T09:04:08.589Z,7.80
2018-08-24T09:06:40.720Z,8.47
2018-08-24T09:09:11.249Z,7.63
2018-08-24T09:11:42.073Z,7.20
2018-08-24T09:14:13.207Z,7.77
2018-08-24T09:16:49.667Z,7.30
2018-08-24T09:19:24.810Z,6.50
2018-08-24T09:21:59.873Z,6.43
2018-08-24T09:25:32.405Z,6.87
2018-08-24T09:28:39.441Z,7.13
2018-08-24T09:31:17.262Z,5.83
2018-08-24T09:33:50.342Z,5.47
2018-08-24T09:36:24.702Z,5.13
2018-08-24T09:38:58.528Z,5.00
2018-08-24T09:41:29.140Z,4.07
2018-08-24T09:43:59.867Z,4.10
2018-08-24T09:46:38.066Z,4.73
2018-08-24T09:49:13.643Z,4.43
2018-08-24T09:51:45.469Z,4.87
2018-08-24T09:54:21.248Z,4.50
2018-08-24T09:56:53.245Z,4.40
2018-08-24T09:59:24.040Z,3.60
2018-08-24T10:02:01.036Z,3.27
2018-08-24T10:04:35.878Z,3.67
2018-08-24T10:07:10.733Z,3.93
2018-08-24T10:09:40.453Z,3.53
2018-08-24T10:12:10.019Z,3.43
2018-08-24T10:14:39.839Z,3.40
2018-08-24T10:17:09.773Z,3.47
2018-08-24T10:19:39.933Z,3.23
2018-08-24T10:22:09.889Z,3.27
2018-08-24T10:24:39.509Z,2.63
2018-08-24T10:27:15.468Z,2.27
2018-08-24T10:29:48.108Z,2.40
2018-08-24T10:32:18.595Z,2.33
2018-08-24T10:34:48.531Z,2.50
2018-08-24T10:37:18.456Z,2.40
2018-08-24T10:39:48.200Z,2.43
2018-08-24T10:42:17.866Z,2.20
2018-08-24T10:44:47.401Z,2.20
2018-08-24T10:47:17.378Z,1.90
2018-08-24T10:49:47.146Z,2.30
2018-08-24T10:52:17.149Z,2.77
2018-08-24T10:54:47.549Z,3.00
2018-08-24T10:57:17.422Z,2.40
2018-08-24T10:59:47.010Z,3.03
2018-08-24T11:02:17.813Z,3.80
2018-08-24T11:04:48.232Z,4.37
2018-08-24T11:07:18.837Z,3.17
2018-08-24T11:09:48.759Z,2.90
2018-08-24T11:12:18.640Z,3.60
2018-08-24T11:14:48.778Z,2.97
2018-08-24T11:17:18.609Z,3.70
2018-08-24T11:19:49.937Z,3.67
2018-08-24T11:22:21.931Z,3.47
2018-08-24T11:24:52.187Z,2.83
2018-08-24T11:27:21.761Z,2.23
2018-08-24T11:29:51.480Z,2.00
2018-08-24T11:32:21.137Z,2.23
2018-08-24T11:34:51.171Z,2.20
2018-08-24T11:37:20.711Z,3.00
2018-08-24T11:39:50.501Z,2.40
2018-08-24T11:42:20.212Z,2.83
2018-08-24T11:44:49.727Z,2.17
2018-08-24T11:47:20.925Z,1.87
2018-08-24T11:49:51.744Z,2.13
2018-08-24T11:52:22.783Z,2.30
2018-08-24T11:54:52.495Z,1.70
2018-08-24T11:57:22.408Z,2.07
2018-08-24T11:59:52.458Z,1.30
2018-08-24T12:02:22.163Z,1.93
2018-08-24T12:04:51.980Z,1.80
2018-08-24T12:07:21.570Z,2.23
2018-08-24T12:09:51.197Z,2.20
2018-08-24T12:12:21.289Z,2.20
2018-08-24T12:14:50.822Z,2.00
2018-08-24T12:17:24.844Z,2.03
2018-08-24T12:19:55.078Z,1.87
2018-08-24T12:22:24.835Z,2.23
2018-08-24T12:25:01.207Z,2.00
2018-08-24T12:27:31.100Z,1.73
2018-08-24T12:30:00.609Z,1.60
2018-08-24T12:32:30.232Z,2.47
2018-08-24T12:35:04.061Z,2.03
2018-08-24T12:37:38.901Z,1.50
2018-08-24T12:40:09.094Z,1.80
2018-08-24T12:42:38.635Z,1.63
2018-08-24T12:45:08.213Z,1.90
2018-08-24T12:47:37.785Z,1.70
2018-08-24T12:50:08.905Z,1.80
2018-08-24T12:52:38.996Z,2.17
2018-08-24T12:55:10.271Z,1.70
2018-08-24T12:57:39.807Z,2.07
2018-08-24T13:00:09.796Z,2.13
2018-08-24T13:02:39.353Z,1.73
2018-08-24T13:05:09.269Z,1.60
2018-08-24T13:07:38.845Z,1.87
2018-08-24T13:10:09.079Z,2.20
2018-08-24T13:12:38.720Z,1.73
2018-08-24T13:15:08.321Z,1.53
2018-08-24T13:17:38.058Z,1.90
2018-08-24T13:20:07.597Z,1.63
2018-08-24T13:22:37.138Z,1.73
2018-08-24T13:25:06.961Z,1.63
2018-08-24T13:27:36.546Z,1.57
2018-08-24T13:30:06.679Z,1.10
2018-08-24T13:32:36.749Z,1.83
2018-08-24T13:35:07.240Z,1.37
2018-08-24T13:37:36.770Z,1.60
2018-08-24T13:40:06.978Z,1.87
2018-08-24T13:42:36.523Z,2.13
2018-08-24T13:45:06.112Z,1.30
2018-08-24T13:47:35.793Z,1.17
2018-08-24T13:50:06.373Z,1.43
2018-08-24T13:52:35.937Z,1.50
2018-08-24T13:55:05.587Z,1.67
2018-08-24T13:57:35.100Z,1.50
2018-08-24T14:00:05.093Z,1.70
2018-08-24T14:02:35.181Z,1.77
2018-08-24T14:05:04.905Z,1.23
2018-08-24T14:07:34.782Z,1.30
2018-08-24T14:10:04.658Z,1.70
2018-08-24T14:12:34.359Z,1.10
2018-08-24T14:15:04.066Z,1.30
2018-08-24T14:17:33.702Z,1.67
2018-08-24T14:20:03.787Z,1.80
2018-08-24T14:22:33.299Z,1.00
2018-08-24T14:25:02.863Z,1.00
2018-08-24T14:27:32.394Z,1.50
2018-08-24T14:30:01.902Z,1.17
2018-08-24T14:32:34.778Z,1.43
2018-08-24T14:35:05.180Z,0.90
2018-08-24T14:37:34.745Z,1.43
2018-08-24T14:40:04.970Z,1.47
2018-08-24T14:42:34.976Z,1.50
2018-08-24T14:45:04.646Z,1.90
2018-08-24T14:47:35.660Z,2.10
2018-08-24T14:50:05.894Z,1.83
2018-08-24T14:52:35.523Z,1.90
2018-08-24T14:55:06.333Z,3.00
2018-08-24T14:57:36.349Z,1.40
2018-08-24T15:00:06.683Z,1.70
2018-08-24T15:02:36.669Z,1.73
2018-08-24T15:05:09.537Z,2.10
2018-08-24T15:07:39.138Z,1.63
2018-08-24T15:10:10.229Z,1.30
2018-08-24T15:12:40.564Z,1.57
2018-08-24T15:15:10.258Z,1.40
2018-08-24T15:17:47.954Z,1.20
2018-08-24T15:20:17.756Z,1.20
2018-08-24T15:22:47.607Z,1.13
2018-08-24T15:25:17.622Z,1.57
2018-08-24T15:27:47.318Z,0.87
2018-08-24T15:30:21.330Z,0.97
2018-08-24T15:32:51.097Z,1.03
2018-08-24T15:35:20.793Z,1.00
2018-08-24T15:37:55.812Z,1.60
2018-08-24T15:40:25.618Z,1.33
2018-08-24T15:42:57.421Z,1.23
2018-08-24T15:45:27.566Z,1.30
2018-08-24T15:47:57.085Z,1.40
2018-08-24T15:50:26.692Z,1.30
2018-08-24T15:52:56.326Z,1.30
2018-08-24T15:55:25.906Z,1.43
2018-08-24T15:57:55.580Z,1.30
2018-08-24T16:00:25.206Z,1.77
2018-08-24T16:02:54.893Z,1.40
2018-08-24T16:05:25.651Z,1.93
2018-08-24T16:07:55.138Z,2.20
2018-08-24T16:10:24.717Z,1.60
2018-08-24T16:12:54.304Z,1.00
2018-08-24T16:15:23.832Z,1.90
2018-08-24T16:17:58.766Z,1.70
2018-08-24T16:20:28.482Z,0.90
2018-08-24T16:22:58.036Z,0.77
2018-08-24T16:25:27.638Z,1.20
2018-08-24T16:27:57.322Z,0.93
2018-08-24T16:30:26.840Z,1.20
2018-08-24T16:32:56.389Z,1.13
2018-08-24T16:35:25.966Z,1.20
2018-08-24T16:37:55.546Z,1.37
2018-08-24T16:40:25.070Z,1.20
2018-08-24T16:42:54.600Z,1.47
2018-08-24T16:45:24.478Z,0.97
2018-08-24T16:47:54.124Z,0.90
2018-08-24T16:50:23.673Z,1.20
2018-08-24T16:52:53.250Z,1.37
2018-08-24T16:55:22.978Z,1.53
2018-08-24T16:57:53.294Z,1.37
2018-08-24T17:00:22.794Z,1.10
2018-08-24T17:02:52.538Z,1.00
2018-08-24T17:05:22.430Z,1.13
2018-08-24T17:07:51.968Z,1.30
2018-08-24T17:10:21.579Z,1.87
2018-08-24T17:12:51.412Z,1.60
2018-08-24T17:15:21.421Z,0.97
2018-08-24T17:17:51.161Z,1.10
2018-08-24T17:20:20.848Z,1.73
2018-08-24T17:22:50.481Z,1.90
2018-08-24T17:25:20.574Z,1.30
2018-08-24T17:27:50.308Z,1.70
2018-08-24T17:30:19.881Z,1.63
2018-08-24T17:32:49.429Z,1.70
2018-08-24T17:35:19.193Z,1.07
2018-08-24T17:37:48.858Z,1.80
2018-08-24T17:40:18.608Z,1.33
2018-08-24T17:42:48.241Z,1.43
2018-08-24T17:45:17.928Z,1.03
2018-08-24T17:47:47.696Z,1.33
2018-08-24T17:50:17.232Z,1.37
2018-08-24T17:52:47.001Z,1.33
2018-08-24T17:55:18.243Z,1.60
2018-08-24T17:57:47.950Z,1.13
2018-08-24T18:00:17.489Z,1.50
2018-08-24T18:02:47.078Z,1.27
2018-08-24T18:05:16.873Z,1.20
2018-08-24T18:07:46.447Z,0.90
2018-08-24T18:10:16.040Z,1.10
2018-08-24T18:12:45.938Z,1.40
2018-08-24T18:15:15.666Z,1.73
2018-08-24T18:17:45.409Z,1.43
2018-08-24T18:20:15.012Z,1.60
2018-08-24T18:22:44.572Z,1.10
2018-08-24T18:25:14.175Z,1.00
2018-08-24T18:27:43.786Z,1.23
2018-08-24T18:30:13.418Z,0.80
2018-08-24T18:32:43.150Z,1.23
2018-08-24T18:35:12.916Z,1.30
2018-08-24T18:37:42.516Z,1.00
2018-08-24T18:40:12.035Z,1.20
2018-08-24T18:42:41.718Z,1.57
2018-08-24T18:45:11.390Z,1.50
2018-08-24T18:47:40.998Z,1.33
2018-08-24T18:50:10.644Z,1.27
2018-08-24T18:52:40.291Z,1.23
2018-08-24T18:55:09.888Z,1.13
2018-08-24T18:57:39.446Z,1.73
2018-08-24T19:00:09.202Z,1.47
2018-08-24T19:02:38.801Z,1.50
2018-08-24T19:05:08.361Z,1.40
2018-08-24T19:07:37.951Z,1.40
2018-08-24T19:10:07.660Z,0.90
2018-08-24T19:12:37.181Z,1.53
2018-08-24T19:15:07.239Z,1.00
2018-08-24T19:17:41.889Z,1.23
2018-08-24T19:20:16.746Z,1.30
2018-08-24T19:22:52.731Z,1.13
2018-08-24T19:25:22.270Z,1.27
2018-08-24T19:27:57.086Z,1.47
2018-08-24T19:30:31.971Z,1.30
2018-08-24T19:33:01.795Z,1.40
2018-08-24T19:35:32.133Z,1.47
2018-08-24T19:38:01.718Z,1.17
2018-08-24T19:40:36.869Z,1.10
2018-08-24T19:43:07.302Z,1.10
2018-08-24T19:45:36.819Z,1.90
2018-08-24T19:48:11.594Z,1.47
2018-08-24T19:50:41.356Z,1.30
2018-08-24T19:53:11.042Z,1.20
2018-08-24T19:55:40.564Z,1.37
2018-08-24T19:58:15.182Z,1.23
2018-08-24T20:00:44.919Z,1.50
2018-08-24T20:03:14.660Z,0.77
2018-08-24T20:05:48.278Z,2.27
2018-08-24T20:08:23.182Z,1.20
2018-08-24T20:10:52.946Z,1.37
2018-08-24T20:13:22.523Z,1.53
2018-08-24T20:15:57.258Z,1.43
2018-08-24T20:18:26.801Z,1.10
2018-08-24T20:20:56.543Z,1.60
2018-08-24T20:23:26.097Z,1.43
2018-08-24T20:25:55.650Z,1.80
2018-08-24T20:28:25.254Z,1.53
2018-08-24T20:30:54.936Z,1.50
2018-08-24T20:33:24.448Z,1.37
2018-08-24T20:35:53.998Z,1.33
2018-08-24T20:38:23.909Z,1.43
2018-08-24T20:40:53.904Z,1.50
2018-08-24T20:43:23.416Z,1.40
2018-08-24T20:45:52.932Z,1.50
2018-08-24T20:48:22.524Z,1.10
2018-08-24T20:50:52.020Z,1.60
2018-08-24T20:53:21.704Z,1.53
2018-08-24T20:55:51.476Z,1.87
2018-08-24T20:58:21.033Z,1.37
2018-08-24T21:00:50.611Z,1.30
2018-08-24T21:03:20.141Z,1.53
2018-08-24T21:05:49.715Z,1.57
2018-08-24T21:08:19.454Z,1.43
2018-08-24T21:10:49.146Z,1.80
2018-08-24T21:13:18.726Z,1.20
2018-08-24T21:15:48.242Z,1.50
2018-08-24T21:18:17.960Z,2.33
2018-08-24T21:20:47.513Z,1.33
2018-08-24T21:23:17.035Z,1.87
2018-08-24T21:25:46.570Z,1.17
2018-08-24T21:28:16.068Z,1.30
2018-08-24T21:30:45.583Z,1.53
2018-08-24T21:33:15.203Z,1.67
2018-08-24T21:35:44.743Z,1.23
2018-08-24T21:38:14.595Z,1.60
2018-08-24T21:40:44.186Z,1.50
2018-08-24T21:43:14.076Z,1.73
2018-08-24T21:45:43.599Z,1.53
2018-08-24T21:48:13.119Z,1.87
2018-08-24T21:50:43.005Z,1.60
2018-08-24T21:53:12.590Z,1.43
2018-08-24T21:55:42.408Z,1.40
2018-08-24T21:58:12.118Z,2.03
2018-08-24T22:00:42.794Z,1.70
2018-08-24T22:03:13.534Z,1.50
2018-08-24T22:05:43.266Z,1.13
2018-08-24T22:08:12.812Z,1.33
2018-08-24T22:10:42.424Z,1.70
2018-08-24T22:13:11.968Z,1.23
2018-08-24T22:15:41.533Z,1.47
2018-08-24T22:18:12.354Z,1.93
2018-08-24T22:20:41.900Z,1.63
2018-08-24T22:23:11.838Z,1.80
2018-08-24T22:25:42.073Z,1.90
2018-08-24T22:28:11.562Z,1.40
2018-08-24T22:30:44.228Z,1.33
2018-08-24T22:33:14.077Z,1.80
2018-08-24T22:35:44.086Z,1.67
2018-08-24T22:38:13.679Z,1.80
2018-08-24T22:40:44.029Z,1.67
2018-08-24T22:43:19.357Z,2.03
2018-08-24T22:45:48.907Z,2.57
2018-08-24T22:48:18.589Z,1.30
2018-08-24T22:50:48.175Z,2.20
2018-08-24T22:53:17.789Z,1.57
2018-08-24T22:55:47.316Z,1.57
2018-08-24T22:58:16.926Z,1.83
2018-08-24T23:00:46.781Z,1.80
2018-08-24T23:03:16.474Z,2.53
2018-08-24T23:05:46.230Z,1.73
2018-08-24T23:08:15.962Z,1.97
2018-08-24T23:10:45.622Z,1.40
2018-08-24T23:13:15.161Z,1.43
2018-08-24T23:15:44.717Z,1.70
2018-08-24T23:18:14.252Z,2.13
2018-08-24T23:20:43.837Z,2.30
2018-08-24T23:23:13.405Z,1.57
2018-08-24T23:25:42.894Z,1.70
2018-08-24T23:28:12.726Z,1.70
2018-08-24T23:30:42.566Z,1.43
2018-08-24T23:33:12.266Z,1.73
2018-08-24T23:35:42.226Z,2.23
2018-08-24T23:38:11.718Z,1.50
2018-08-24T23:40:41.253Z,1.30
2018-08-24T23:43:10.809Z,1.60
2018-08-24T23:45:40.540Z,1.83
2018-08-24T23:48:10.090Z,1.83
2018-08-24T23:50:39.604Z,1.63
2018-08-24T23:53:09.221Z,1.73
2018-08-24T23:55:38.884Z,1.57
2018-08-24T23:58:08.649Z,1.57
